Time;durP1;ratioP1;P1;durP2;ratioP2;P2;SDS_P1;SDS_P2;PMS_P1;PMS_P2;Temp;Humidity;BMP_temperature;BMP_pressure;BME280_temperature;BME280_humidity;BME280_pressure;Samples;Min_cycle;Max_cycle;Signal;HPM_P1;HPM_P2
2023/01/04 00:02:20;;;;;;;11.48;6.40;;;;;;;8.00;100.00;99755.06;5040704;28;20093;-60
2023/01/04 00:04:46;;;;;;;9.90;5.53;;;;;;;8.14;100.00;99778.28;5045387;28;20356;-58
2023/01/04 00:07:11;;;;;;;9.45;5.53;;;;;;;8.08;100.00;99771.72;5044129;28;20060;-60
2023/01/04 00:09:37;;;;;;;9.40;5.22;;;;;;;7.69;100.00;99725.97;5062043;28;21099;-61
2023/01/04 00:12:03;;;;;;;8.18;5.53;;;;;;;7.74;100.00;99731.69;5061085;28;20037;-59
2023/01/04 00:14:28;;;;;;;9.10;5.68;;;;;;;7.94;100.00;99782.19;5046935;28;20028;-58
2023/01/04 00:16:56;;;;;;;9.48;6.30;;;;;;;7.94;100.00;99770.97;5042386;28;20085;-61
2023/01/04 00:19:21;;;;;;;9.13;5.65;;;;;;;7.97;100.00;99769.00;5047241;28;20450;-61
2023/01/04 00:21:47;;;;;;;10.55;5.47;;;;;;;7.85;100.00;99736.16;5046098;28;20032;-60
2023/01/04 00:24:14;;;;;;;8.73;5.30;;;;;;;7.98;100.00;99762.91;5047321;28;20044;-58
2023/01/04 00:26:40;;;;;;;9.25;5.75;;;;;;;7.91;100.00;99753.06;5049067;28;20079;-58
2023/01/04 00:29:08;;;;;;;10.57;5.50;;;;;;;7.94;100.00;99761.47;5046270;28;20024;-62
2023/01/04 00:31:34;;;;;;;10.93;5.43;;;;;;;7.90;100.00;99754.81;5043511;28;20387;-61
2023/01/04 00:34:01;;;;;;;8.27;5.13;;;;;;;7.89;100.00;99761.75;5043869;28;20036;-61
2023/01/04 00:36:27;;;;;;;8.77;5.55;;;;;;;7.85;100.00;99755.13;5064166;28;20038;-59
2023/01/04 00:39:09;;;;;;;9.40;5.60;;;;;;;7.87;100.00;99757.59;5039406;28;20438;-60
2023/01/04 00:41:40;;;;;;;10.95;5.93;;;;;;;7.95;100.00;99759.69;5048320;28;20071;-60
2023/01/04 00:44:07;;;;;;;9.50;5.55;;;;;;;7.91;100.00;99755.66;5043802;28;20016;-59
2023/01/04 00:46:34;;;;;;;9.15;5.72;;;;;;;7.91;100.00;99759.06;5037930;28;20040;-58
2023/01/04 00:49:01;;;;;;;8.65;5.60;;;;;;;7.88;100.00;99765.28;5042600;28;20110;-61
2023/01/04 00:51:27;;;;;;;9.00;5.28;;;;;;;7.59;100.00;99720.53;5042860;28;20524;-60
2023/01/04 00:53:53;;;;;;;10.60;5.07;;;;;;;7.90;100.00;99757.38;5045590;28;20028;-59
2023/01/04 00:56:19;;;;;;;10.57;5.35;;;;;;;7.84;100.00;99762.97;5036767;28;20539;-60
2023/01/04 00:58:44;;;;;;;8.10;5.10;;;;;;;7.76;100.00;99760.03;5037681;28;20514;-60
2023/01/04 01:01:10;;;;;;;8.18;4.82;;;;;;;7.82;100.00;99764.84;5046085;28;20386;-60
2023/01/04 01:03:35;;;;;;;9.68;5.43;;;;;;;7.44;100.00;99721.53;5026896;28;20028;-60
2023/01/04 01:06:02;;;;;;;8.93;5.15;;;;;;;7.66;100.00;99768.38;5055022;28;20040;-58
2023/01/04 01:08:28;;;;;;;7.70;4.70;;;;;;;7.74;100.00;99774.84;5043371;28;20029;-58
2023/01/04 01:10:53;;;;;;;7.60;4.90;;;;;;;7.77;100.00;99775.47;5044744;28;20102;-61
2023/01/04 01:13:20;;;;;;;9.02;5.00;;;;;;;7.74;100.00;99774.84;5045323;28;20025;-58
2023/01/04 01:15:46;;;;;;;7.93;4.68;;;;;;;7.66;100.00;99780.50;5028370;28;20036;-59
2023/01/04 01:18:12;;;;;;;8.68;5.05;;;;;;;7.61;100.00;99787.72;5041443;28;20044;-59
2023/01/04 01:20:42;;;;;;;8.68;5.07;;;;;;;7.51;100.00;99785.72;5040156;28;20116;-59
2023/01/04 01:23:10;;;;;;;9.13;5.40;;;;;;;7.46;100.00;99782.59;5023020;28;20090;-58
2023/01/04 01:25:36;;;;;;;9.15;5.18;;;;;;;7.26;100.00;99750.19;5026490;28;20082;-58
2023/01/04 01:28:01;;;;;;;10.73;6.20;;;;;;;7.25;100.00;99755.50;5040713;28;20059;-57
2023/01/04 01:30:27;;;;;;;9.60;6.28;;;;;;;7.40;100.00;99777.81;5025960;28;20029;-59
2023/01/04 01:32:52;;;;;;;9.88;6.10;;;;;;;7.47;100.00;99789.44;5025386;28;20709;-59
2023/01/04 01:35:18;;;;;;;9.68;6.00;;;;;;;7.50;100.00;99793.59;5044253;28;20061;-59
2023/01/04 01:37:44;;;;;;;11.57;6.00;;;;;;;6.88;100.00;99687.94;5024799;28;20487;-60
2023/01/04 01:40:10;;;;;;;8.27;5.60;;;;;;;7.28;100.00;99747.53;5022930;28;20082;-60
2023/01/04 01:42:36;;;;;;;11.77;6.53;;;;;;;7.44;100.00;99781.03;5025780;28;20052;-58
2023/01/04 01:45:10;;;;;;;11.38;5.90;;;;;;;7.48;100.00;99790.25;5021962;28;20484;-58
2023/01/04 01:47:44;;;;;;;10.05;6.03;;;;;;;7.46;100.00;99787.78;5020859;28;20025;-58
2023/01/04 01:50:23;;;;;;;9.90;6.40;;;;;;;7.11;100.00;99733.88;5002034;28;20029;-59
2023/01/04 01:52:49;;;;;;;9.40;6.07;;;;;;;7.25;100.00;99773.59;5021610;28;20025;-59
2023/01/04 01:55:16;;;;;;;10.65;6.45;;;;;;;7.07;100.00;99729.84;5039431;28;20039;-58
2023/01/04 01:57:42;;;;;;;9.90;5.93;;;;;;;7.07;100.00;99739.34;5023114;28;20169;-58
2023/01/04 02:00:11;;;;;;;12.00;6.43;;;;;;;7.37;100.00;99767.66;5022661;28;20047;-60
2023/01/04 02:02:44;;;;;;;10.07;6.28;;;;;;;7.38;100.00;99778.84;5018349;28;20194;-59
2023/01/04 02:05:10;;;;;;;9.95;5.90;;;;;;;7.31;100.00;99780.97;5019131;28;20124;-59
2023/01/04 02:07:36;;;;;;;9.07;6.35;;;;;;;7.00;100.00;99759.56;5009247;28;20393;-60
2023/01/04 02:10:02;;;;;;;10.65;6.70;;;;;;;7.21;100.00;99797.97;5043102;28;20039;-59
2023/01/04 02:12:28;;;;;;;10.13;6.10;;;;;;;7.18;100.00;99796.41;5045944;28;20024;-58
2023/01/04 02:14:53;;;;;;;11.07;6.32;;;;;;;7.09;100.00;99792.63;5010514;28;20090;-59
2023/01/04 02:17:28;;;;;;;11.00;6.45;;;;;;;7.01;100.00;99794.88;5014242;28;20051;-60
2023/01/04 02:20:23;;;;;;;11.43;7.07;;;;;;;6.92;100.00;99779.91;5021407;28;20032;-59
2023/01/04 02:23:03;;;;;;;12.23;7.18;;;;;;;6.92;100.00;99787.66;5027558;28;20025;-59
2023/01/04 02:25:59;;;;;;;10.63;7.35;;;;;;;6.91;100.00;99786.81;5024831;28;20567;-58
2023/01/04 02:28:57;;;;;;;12.18;7.15;;;;;;;6.89;100.00;99774.91;5057016;28;20108;-58
2023/01/04 02:31:46;;;;;;;12.88;7.47;;;;;;;6.86;100.00;99769.94;5016249;28;20136;-57
2023/01/04 02:34:48;;;;;;;10.48;7.13;;;;;;;6.82;100.00;99758.94;5029569;28;20471;-59
2023/01/04 02:37:25;;;;;;;12.48;6.95;;;;;;;6.79;100.00;99766.03;5019201;28;20083;-61
2023/01/04 02:40:15;;;;;;;11.95;7.90;;;;;;;6.74;100.00;99772.31;5049758;28;20029;-59
2023/01/04 02:46:21;;;;;;;13.98;7.70;;;;;;;6.74;100.00;99774.91;5046244;28;20047;-57
2023/01/04 02:51:37;;;;;;;10.95;6.55;;;;;;;6.67;100.00;99750.34;4954176;28;20011;-59
2023/01/04 02:54:06;;;;;;;9.52;6.18;;;;;;;6.50;100.00;99716.97;4965875;28;20042;-59
2023/01/04 02:57:19;;;;;;;10.07;7.05;;;;;;;6.67;100.00;99759.88;4963924;28;20045;-59
2023/01/04 02:59:56;;;;;;;10.15;6.38;;;;;;;6.64;100.00;99755.69;4887463;29;20065;-60
2023/01/04 03:08:31;;;;;;;10.13;6.82;;;;;;;6.72;100.00;99761.25;4869781;29;20448;-59
2023/01/04 03:11:00;;;;;;;10.32;6.40;;;;;;;6.68;100.00;99759.78;4876756;29;20591;-60
2023/01/04 03:13:32;;;;;;;8.95;5.78;;;;;;;6.63;100.00;99753.22;4887683;29;20048;-60
2023/01/04 03:16:07;;;;;;;9.60;5.85;;;;;;;6.64;100.00;99752.28;4871273;29;20111;-60
2023/01/04 03:18:37;;;;;;;7.63;4.90;;;;;;;6.70;100.00;99750.19;4892960;29;20132;-59
2023/01/04 03:21:04;;;;;;;8.82;5.43;;;;;;;6.68;100.00;99756.34;4935200;28;20034;-61
2023/01/04 03:35:49;;;;;;;9.30;5.50;;;;;;;6.57;100.00;99756.16;5043442;28;20119;-59
2023/01/04 03:50:21;;;;;;;11.05;6.57;;;;;;;6.49;100.00;99760.03;5059467;28;20529;-59
2023/01/04 03:52:48;;;;;;;11.70;6.47;;;;;;;6.50;100.00;99756.53;5044098;28;20037;-61
2023/01/04 03:55:15;;;;;;;10.10;5.38;;;;;;;6.49;100.00;99756.63;5045154;28;20074;-61
2023/01/04 03:57:41;;;;;;;11.05;6.53;;;;;;;6.48;100.00;99753.22;5046224;28;20048;-59
2023/01/04 04:00:13;;;;;;;10.02;6.10;;;;;;;6.50;100.00;99764.28;5042635;28;20741;-61
2023/01/04 04:02:39;;;;;;;9.73;6.28;;;;;;;6.45;100.00;99753.38;5044072;28;20036;-60
2023/01/04 04:10:34;;;;;;;9.77;5.80;;;;;;;6.29;100.00;99706.94;5050003;28;20097;-60
2023/01/04 04:12:59;;;;;;;8.30;5.45;;;;;;;6.41;100.00;99736.41;5047676;28;20028;-59
2023/01/04 04:15:25;;;;;;;11.13;6.20;;;;;;;6.49;100.00;99743.69;5043010;28;20068;-61
2023/01/04 04:17:50;;;;;;;9.02;5.78;;;;;;;6.49;100.00;99734.19;5041236;28;20044;-60
2023/01/04 04:20:16;;;;;;;10.30;5.72;;;;;;;6.33;100.00;99711.03;5046922;28;20033;-60
2023/01/04 04:22:42;;;;;;;10.32;6.00;;;;;;;6.44;100.00;99725.06;5038434;28;20492;-61
2023/01/04 04:25:08;;;;;;;9.20;5.38;;;;;;;6.52;100.00;99740.94;5043696;28;20142;-58
2023/01/04 04:27:33;;;;;;;7.82;5.10;;;;;;;6.49;100.00;99741.13;5042254;28;20056;-59
2023/01/04 04:29:59;;;;;;;8.68;4.57;;;;;;;6.39;100.00;99732.25;5065811;28;20020;-59
2023/01/04 04:32:25;;;;;;;7.85;4.82;;;;;;;6.50;100.00;99746.19;5032559;28;20040;-59
2023/01/04 04:34:52;;;;;;;8.63;4.90;;;;;;;6.40;100.00;99749.41;5047910;28;20071;-59
2023/01/04 04:37:17;;;;;;;9.57;5.90;;;;;;;6.49;100.00;99751.44;5042828;28;20788;-60
2023/01/04 04:39:43;;;;;;;9.40;5.75;;;;;;;6.15;100.00;99700.03;5025712;28;20084;-62
2023/01/04 04:42:08;;;;;;;7.85;5.20;;;;;;;6.47;100.00;99746.38;5064230;28;20392;-60
2023/01/04 04:44:35;;;;;;;8.85;4.57;;;;;;;6.49;100.00;99743.69;5060059;28;20506;-61
2023/01/04 04:47:01;;;;;;;9.13;5.13;;;;;;;6.42;100.00;99748.38;5026647;28;20033;-59
2023/01/04 04:49:26;;;;;;;8.80;5.13;;;;;;;6.42;100.00;99755.31;5039268;28;20035;-58
2023/01/04 04:51:53;;;;;;;7.72;4.82;;;;;;;6.22;100.00;99707.41;5022500;28;20028;-62
2023/01/04 04:54:20;;;;;;;11.20;4.80;;;;;;;6.08;100.00;99695.31;5042607;28;20399;-59
2023/01/04 04:56:46;;;;;;;9.82;4.97;;;;;;;6.45;100.00;99747.41;5055126;28;20031;-61
2023/01/04 04:59:14;;;;;;;8.65;4.53;;;;;;;6.44;100.00;99746.53;5042745;28;20388;-62
2023/01/04 05:01:40;;;;;;;7.25;4.28;;;;;;;6.42;100.00;99742.41;5024782;28;20535;-58
2023/01/04 05:04:07;;;;;;;7.38;4.40;;;;;;;6.12;100.00;99702.78;5040779;28;20144;-60
2023/01/04 05:06:33;;;;;;;8.18;4.40;;;;;;;6.32;100.00;99737.78;5048264;28;20028;-58
2023/01/04 05:08:58;;;;;;;7.68;4.63;;;;;;;6.12;100.00;99710.53;5027113;28;20025;-59
2023/01/04 05:14:09;;;;;;;8.10;4.78;;;;;;;6.34;100.00;99742.84;5053773;28;20100;-60
2023/01/04 05:16:35;;;;;;;7.53;4.40;;;;;;;6.37;100.00;99745.28;5042363;28;20069;-60
2023/01/04 05:19:00;;;;;;;7.80;4.53;;;;;;;6.39;100.00;99748.59;5063117;28;20028;-60
2023/01/04 05:21:26;;;;;;;7.72;4.70;;;;;;;6.46;100.00;99752.47;5040487;28;20424;-57
2023/01/04 05:23:51;;;;;;;7.25;4.03;;;;;;;6.46;100.00;99765.41;5046873;28;20119;-58
2023/01/04 05:26:17;;;;;;;8.30;4.63;;;;;;;6.18;100.00;99719.66;5040460;28;20024;-59
2023/01/04 05:28:42;;;;;;;7.20;4.63;;;;;;;6.45;100.00;99757.72;5061070;28;20035;-59
2023/01/04 05:31:08;;;;;;;8.43;4.90;;;;;;;6.43;100.00;99757.00;5025596;28;20123;-63
2023/01/04 05:33:33;;;;;;;6.97;4.10;;;;;;;6.24;100.00;99721.06;5058444;28;20469;-59
2023/01/04 05:36:02;;;;;;;8.82;4.55;;;;;;;6.41;100.00;99764.00;5041380;28;20798;-59
2023/01/04 05:38:28;;;;;;;8.55;4.53;;;;;;;6.29;100.00;99748.28;5042580;28;20056;-59
2023/01/04 05:40:54;;;;;;;7.93;4.35;;;;;;;6.29;100.00;99753.44;5042200;28;20036;-59
2023/01/04 05:43:20;;;;;;;6.63;3.97;;;;;;;6.43;100.00;99757.00;5042283;28;20047;-59
2023/01/04 05:45:51;;;;;;;8.77;4.35;;;;;;;6.38;100.00;99748.69;5034714;28;20035;-59
2023/01/04 05:48:17;;;;;;;7.78;4.18;;;;;;;6.42;100.00;99757.91;5062675;28;20077;-58
2023/01/04 05:50:44;;;;;;;8.30;4.55;;;;;;;6.32;100.00;99766.19;5043934;28;20041;-60
2023/01/04 05:53:11;;;;;;;7.75;4.63;;;;;;;6.35;100.00;99773.78;5039704;28;20529;-59
2023/01/04 05:55:37;;;;;;;7.82;4.32;;;;;;;6.36;100.00;99766.84;5038886;28;20028;-58
2023/01/04 05:58:03;;;;;;;10.68;5.18;;;;;;;6.19;100.00;99718.75;5041964;28;20094;-58
2023/01/04 06:00:29;;;;;;;7.93;4.93;;;;;;;6.45;100.00;99758.56;5031026;28;20063;-58
2023/01/04 06:02:55;;;;;;;8.00;4.72;;;;;;;6.52;100.00;99770.19;5032648;28;20037;-59
2023/01/04 06:05:22;;;;;;;8.95;4.72;;;;;;;6.52;100.00;99779.72;5045562;28;20456;-58
2023/01/04 06:07:48;;;;;;;8.05;4.32;;;;;;;6.51;100.00;99778.03;5047579;28;20024;-60
2023/01/04 06:10:14;;;;;;;8.45;4.72;;;;;;;6.35;100.00;99741.91;5046340;28;20041;-58
2023/01/04 06:12:41;;;;;;;7.55;4.53;;;;;;;6.59;100.00;99774.97;5035768;28;20746;-59
2023/01/04 06:15:09;;;;;;;8.35;4.88;;;;;;;6.32;100.00;99732.59;5061764;28;20036;-58
2023/01/04 06:17:35;;;;;;;8.77;4.88;;;;;;;6.54;100.00;99775.28;5046941;28;20063;-58
2023/01/04 06:20:03;;;;;;;8.32;4.78;;;;;;;6.56;100.00;99781.19;5032294;28;20039;-60
2023/01/04 06:22:28;;;;;;;8.30;5.03;;;;;;;6.40;100.00;99763.16;5033217;28;20051;-60
2023/01/04 06:24:55;;;;;;;8.15;5.28;;;;;;;6.49;100.00;99785.03;5044423;28;20076;-59
2023/01/04 06:27:21;;;;;;;11.38;5.20;;;;;;;6.47;100.00;99785.13;5045954;28;20443;-59
2023/01/04 06:29:46;;;;;;;9.88;5.93;;;;;;;6.20;100.00;99758.31;5048990;28;20028;-61
2023/01/04 06:32:12;;;;;;;9.73;5.72;;;;;;;6.24;100.00;99754.63;5040340;28;20816;-59
2023/01/04 06:34:37;;;;;;;10.52;4.93;;;;;;;6.52;100.00;99784.88;5047364;28;20501;-59
2023/01/04 06:37:04;;;;;;;8.50;5.07;;;;;;;6.51;100.00;99791.78;5063705;28;20024;-61
2023/01/04 06:39:30;;;;;;;9.45;5.72;;;;;;;6.50;100.00;99791.88;5042681;28;20025;-59
2023/01/04 06:41:55;;;;;;;9.27;5.50;;;;;;;6.40;100.00;99791.56;5043591;28;20762;-60
2023/01/04 06:44:21;;;;;;;9.45;5.60;;;;;;;6.54;100.00;99798.53;5031774;28;20439;-59
2023/01/04 06:46:46;;;;;;;9.18;5.47;;;;;;;6.43;100.00;99794.00;5030518;28;20024;-60
2023/01/04 06:49:13;;;;;;;8.23;4.88;;;;;;;6.44;100.00;99798.22;5065168;28;20028;-60
2023/01/04 06:51:38;;;;;;;9.07;5.35;;;;;;;6.46;100.00;99801.56;5021309;28;20066;-59
2023/01/04 06:54:04;;;;;;;8.82;5.40;;;;;;;6.20;100.00;99755.75;5043230;28;20107;-59
2023/01/04 06:56:31;;;;;;;9.73;5.55;;;;;;;6.49;100.00;99806.53;5041969;28;20515;-60
2023/01/04 06:58:56;;;;;;;7.90;4.78;;;;;;;6.52;100.00;99810.72;5045182;28;20420;-57
2023/01/04 07:01:22;;;;;;;7.53;4.57;;;;;;;6.54;100.00;99811.47;5047012;28;20036;-59
2023/01/04 07:03:47;;;;;;;7.90;4.97;;;;;;;6.58;100.00;99812.94;5027265;28;20033;-60
2023/01/04 07:06:14;;;;;;;8.57;5.35;;;;;;;6.57;100.00;99813.00;5038812;28;20043;-60
2023/01/04 07:08:39;;;;;;;7.78;4.93;;;;;;;6.34;100.00;99781.59;5042166;28;20124;-59
2023/01/04 07:11:05;;;;;;;9.80;5.70;;;;;;;6.52;100.00;99818.47;5043355;28;20044;-58
2023/01/04 07:13:30;;;;;;;7.88;4.72;;;;;;;6.31;100.00;99823.94;5033145;28;20042;-60
2023/01/04 07:15:56;;;;;;;9.55;5.70;;;;;;;6.36;100.00;99815.94;5044449;28;20032;-60
2023/01/04 07:18:21;;;;;;;8.48;4.43;;;;;;;6.42;100.00;99825.06;5042703;28;20384;-59
2023/01/04 07:20:47;;;;;;;8.27;4.60;;;;;;;6.40;100.00;99827.75;5045913;28;20127;-59
2023/01/04 07:23:12;;;;;;;7.57;4.57;;;;;;;6.46;100.00;99826.56;5042083;28;20040;-58
2023/01/04 07:25:38;;;;;;;8.73;5.05;;;;;;;6.42;100.00;99819.91;5045420;28;20060;-59
2023/01/04 07:28:03;;;;;;;9.25;4.70;;;;;;;6.45;100.00;99822.31;5062395;28;20067;-59
2023/01/04 07:30:29;;;;;;;8.20;5.00;;;;;;;6.24;100.00;99795.97;5029118;28;20463;-58
2023/01/04 07:32:56;;;;;;;9.07;5.43;;;;;;;6.20;100.00;99787.56;5063123;28;20035;-60
2023/01/04 07:35:22;;;;;;;8.80;4.82;;;;;;;6.43;100.00;99834.50;5045254;28;20093;-59
2023/01/04 07:37:47;;;;;;;7.70;4.55;;;;;;;6.47;100.00;99830.81;5025799;28;20052;-60
2023/01/04 07:40:13;;;;;;;7.35;4.30;;;;;;;6.47;100.00;99835.97;5038118;28;20076;-60
2023/01/04 07:42:39;;;;;;;7.68;4.30;;;;;;;6.51;100.00;99840.88;5045368;28;20024;-61
2023/01/04 07:45:05;;;;;;;7.30;4.60;;;;;;;6.52;100.00;99841.72;5030329;28;20021;-64
2023/01/04 07:47:31;;;;;;;8.23;5.20;;;;;;;6.24;100.00;99801.97;5041247;28;20509;-60
2023/01/04 07:49:57;;;;;;;9.50;4.60;;;;;;;6.22;100.00;99798.63;5063551;28;20032;-61
2023/01/04 07:52:23;;;;;;;9.65;5.47;;;;;;;6.11;100.00;99790.66;5025293;28;20101;-61
2023/01/04 07:54:48;;;;;;;8.15;4.57;;;;;;;6.48;100.00;99841.06;5054949;28;20117;-61
2023/01/04 07:57:14;;;;;;;9.30;5.40;;;;;;;6.43;100.00;99843.06;5063406;28;20052;-60
2023/01/04 07:59:39;;;;;;;8.98;5.35;;;;;;;6.44;100.00;99852.47;5056828;28;20028;-59
2023/01/04 08:02:05;;;;;;;7.65;4.57;;;;;;;6.43;100.00;99848.25;5045806;28;20027;-62
2023/01/04 08:04:31;;;;;;;8.73;5.15;;;;;;;6.13;100.00;99791.41;5039723;28;20028;-60
2023/01/04 08:06:57;;;;;;;8.98;4.60;;;;;;;6.19;100.00;99791.06;5041154;28;20059;-59
2023/01/04 08:09:23;;;;;;;9.68;5.82;;;;;;;6.38;100.00;99834.75;5029533;28;20574;-60
2023/01/04 08:11:48;;;;;;;8.20;4.97;;;;;;;6.42;100.00;99843.16;5041197;28;20106;-61
2023/01/04 08:14:14;;;;;;;10.73;5.60;;;;;;;6.42;100.00;99840.56;5064408;28;20552;-63
2023/01/04 08:16:41;;;;;;;8.77;5.28;;;;;;;6.41;100.00;99844.09;5040171;28;20043;-59
2023/01/04 08:19:11;;;;;;;8.48;5.07;;;;;;;6.44;100.00;99836.97;5036405;28;20040;-60
2023/01/04 08:21:37;;;;;;;8.82;4.80;;;;;;;6.46;100.00;99842.91;5058678;28;20082;-60
2023/01/04 08:24:03;;;;;;;8.15;5.18;;;;;;;6.42;100.00;99843.16;5039265;28;20025;-60
2023/01/04 08:26:28;;;;;;;9.68;5.22;;;;;;;6.34;100.00;99847.00;5059833;28;20535;-61
2023/01/04 08:28:55;;;;;;;8.55;5.15;;;;;;;6.41;100.00;99850.09;5042996;28;20086;-60
2023/01/04 08:31:23;;;;;;;8.98;4.93;;;;;;;6.41;100.00;99831.19;5040615;28;20468;-60
2023/01/04 08:33:49;;;;;;;8.57;5.43;;;;;;;6.16;100.00;99806.75;5041071;28;20052;-61
2023/01/04 08:36:26;;;;;;;8.35;5.50;;;;;;;6.23;100.00;99826.13;5026999;28;20127;-60
2023/01/04 08:38:55;;;;;;;9.23;5.57;;;;;;;6.38;100.00;99855.44;5023551;28;20101;-61
2023/01/04 08:41:20;;;;;;;8.63;5.40;;;;;;;6.38;100.00;99849.44;5043216;28;20438;-62
2023/01/04 08:43:46;;;;;;;8.95;5.60;;;;;;;6.35;100.00;99850.41;5054244;28;20040;-61
2023/01/04 08:46:12;;;;;;;11.07;4.95;;;;;;;6.33;100.00;99850.53;5043679;28;20060;-59
2023/01/04 08:48:39;;;;;;;8.65;5.43;;;;;;;6.29;100.00;99859.34;5056876;28;20028;-62
2023/01/04 08:51:07;;;;;;;9.90;5.30;;;;;;;6.34;100.00;99861.69;5025737;28;21014;-62
2023/01/04 08:53:33;;;;;;;10.88;7.28;;;;;;;6.39;100.00;99858.84;5038219;28;20032;-62
2023/01/04 08:55:59;;;;;;;15.82;9.85;;;;;;;6.31;100.00;99852.34;5038076;28;20520;-59
2023/01/04 08:58:26;;;;;;;12.82;7.90;;;;;;;6.31;100.00;99842.00;5027736;28;20028;-62
2023/01/04 09:00:52;;;;;;;13.63;8.60;;;;;;;6.28;100.00;99837.03;5027042;28;20077;-59
2023/01/04 09:03:18;;;;;;;10.85;7.72;;;;;;;6.32;100.00;99845.44;5062477;28;20083;-61
2023/01/04 09:05:45;;;;;;;10.02;5.78;;;;;;;6.11;100.00;99809.56;5027459;28;20060;-59
2023/01/04 09:08:10;;;;;;;9.57;6.47;;;;;;;6.35;100.00;99850.41;5044019;28;20116;-58
2023/01/04 09:10:37;;;;;;;9.63;6.70;;;;;;;6.37;100.00;99856.34;5025327;28;20111;-59
2023/01/04 09:13:03;;;;;;;11.70;7.40;;;;;;;6.18;100.00;99815.22;5058631;28;20037;-60
2023/01/04 09:15:29;;;;;;;10.50;6.80;;;;;;;6.43;100.00;99855.19;5040200;28;20028;-58
2023/01/04 09:17:54;;;;;;;11.63;7.43;;;;;;;6.37;100.00;99853.78;5043564;28;20024;-58
2023/01/04 09:20:20;;;;;;;10.10;6.22;;;;;;;6.37;100.00;99855.50;5041816;28;20025;-59
2023/01/04 09:22:45;;;;;;;9.98;6.00;;;;;;;6.41;100.00;99854.44;5035162;28;20025;-61
2023/01/04 09:25:11;;;;;;;9.20;5.63;;;;;;;6.23;100.00;99820.97;5044101;28;20036;-59
2023/01/04 09:27:38;;;;;;;8.95;5.65;;;;;;;6.48;100.00;99861.75;5040921;28;20033;-59
2023/01/04 09:30:05;;;;;;;9.75;6.72;;;;;;;6.22;100.00;99827.03;5029357;28;20025;-60
2023/01/04 09:32:30;;;;;;;11.30;7.50;;;;;;;6.51;100.00;99852.97;5042572;28;20028;-58
2023/01/04 09:34:56;;;;;;;11.73;7.38;;;;;;;6.61;100.00;99859.28;5043506;28;20434;-60
2023/01/04 09:37:22;;;;;;;11.20;7.05;;;;;;;6.65;100.00;99865.09;5026563;28;20060;-59
2023/01/04 09:39:47;;;;;;;10.23;6.25;;;;;;;6.62;100.00;99858.34;5038949;28;20063;-59
2023/01/04 09:42:24;;;;;;;10.77;6.18;;;;;;;6.56;100.00;99855.31;5026734;28;20042;-59
2023/01/04 09:45:01;;;;;;;11.98;6.88;;;;;;;6.40;100.00;99808.84;5043658;28;20040;-59
2023/01/04 09:47:58;;;;;;;11.20;5.78;;;;;;;6.70;100.00;99857.91;5037755;28;20059;-59
2023/01/04 09:50:55;;;;;;;9.77;5.85;;;;;;;6.75;100.00;99868.78;5042962;28;20051;-59
2023/01/04 09:53:24;;;;;;;8.93;5.78;;;;;;;6.52;100.00;99832.22;5043538;28;20033;-59
2023/01/04 09:55:50;;;;;;;8.70;5.40;;;;;;;6.72;100.00;99869.00;5060393;28;20103;-61
2023/01/04 09:58:37;;;;;;;8.80;5.75;;;;;;;6.81;100.00;99877.94;5027923;28;20028;-59
2023/01/04 10:01:14;;;;;;;7.97;5.38;;;;;;;6.77;100.00;99873.88;5042698;28;20021;-61
2023/01/04 10:03:50;;;;;;;11.10;5.50;;;;;;;6.78;100.00;99872.97;5026352;28;20526;-58
2023/01/04 10:06:16;;;;;;;9.30;5.78;;;;;;;6.58;100.00;99827.63;5018171;28;20067;-61
2023/01/04 10:08:42;;;;;;;9.75;5.75;;;;;;;6.94;100.00;99853.06;5062082;28;20028;-61
2023/01/04 10:11:19;;;;;;;8.63;5.65;;;;;;;6.91;100.00;99854.06;5043138;28;20086;-60
2023/01/04 10:14:20;;;;;;;9.40;5.75;;;;;;;6.92;100.00;99842.78;5056359;28;20025;-61
2023/01/04 10:17:00;;;;;;;11.63;7.78;;;;;;;6.96;100.00;99843.44;5027913;28;20153;-60
2023/01/04 10:19:28;;;;;;;13.40;7.22;;;;;;;7.03;100.00;99836.16;5036186;28;20821;-60
2023/01/04 10:22:02;;;;;;;11.80;6.80;;;;;;;7.04;100.00;99843.81;5046311;28;20035;-62
2023/01/04 10:24:37;;;;;;;10.57;6.28;;;;;;;7.09;100.00;99846.13;5031940;28;20112;-61
2023/01/04 10:27:34;;;;;;;9.55;5.97;;;;;;;7.03;100.00;99795.59;5027113;28;20040;-62
2023/01/04 10:30:19;;;;;;;8.95;5.53;;;;;;;7.30;100.00;99833.63;5045827;28;20037;-62
2023/01/04 10:33:08;;;;;;;9.25;5.57;;;;;;;7.22;100.00;99816.00;5028262;28;20056;-62
2023/01/04 10:35:34;;;;;;;8.23;5.07;;;;;;;7.27;100.00;99818.31;5024579;28;20075;-59
2023/01/04 10:38:02;;;;;;;9.63;5.57;;;;;;;7.27;100.00;99790.69;5028507;28;20095;-59
2023/01/04 10:40:32;;;;;;;8.02;5.13;;;;;;;7.49;100.00;99812.66;5035486;28;20021;-60
2023/01/04 10:43:02;;;;;;;8.52;5.57;;;;;;;7.50;100.00;99802.19;5044206;28;21132;-59
2023/01/04 10:45:40;;;;;;;8.77;5.45;;;;;;;7.51;100.00;99795.25;5048862;28;20121;-60
2023/01/04 10:48:22;;;;;;;8.50;5.25;;;;;;;7.56;100.00;99795.00;5049772;28;20048;-61
2023/01/04 10:50:55;;;;;;;9.73;4.95;;;;;;;7.64;100.00;99795.31;5051451;28;20025;-61
2023/01/04 10:53:40;;;;;;;8.45;4.75;;;;;;;7.72;100.00;99781.88;5015932;28;20048;-61
2023/01/04 10:56:17;;;;;;;7.88;4.32;;;;;;;7.72;100.00;99789.66;5047746;28;20770;-61
2023/01/04 10:58:47;;;;;;;6.88;4.10;;;;;;;7.75;100.00;99784.28;5032349;28;20057;-60
2023/01/04 11:01:18;;;;;;;9.25;5.60;;;;;;;7.73;100.00;99784.38;5031033;28;20689;-62
2023/01/04 11:03:48;;;;;;;8.52;5.35;;;;;;;7.78;100.00;99795.28;5014688;28;20390;-60
2023/01/04 11:06:16;;;;;;;;;;;;;;;7.64;100.00;99797.91;5048844;28;20533;-59
2023/01/04 11:08:56;;;;;;;8.95;5.97;;;;;;;7.42;100.00;99744.09;5050847;28;19927;-61
2023/01/04 11:11:44;;;;;;;8.98;5.40;;;;;;;7.64;100.00;99787.56;5050017;28;20029;-60
2023/01/04 11:14:10;;;;;;;8.25;5.13;;;;;;;7.49;100.00;99779.00;5030345;28;20099;-62
2023/01/04 11:19:58;;;;;;;8.40;5.20;;;;;;;7.73;100.00;99776.59;5043238;28;20441;-60
2023/01/04 11:22:46;;;;;;;8.13;5.05;;;;;;;7.67;100.00;99769.25;5032849;28;20487;-63
2023/01/04 11:25:16;;;;;;;8.02;4.90;;;;;;;7.70;100.00;99759.53;5037508;28;20112;-63
2023/01/04 11:28:20;;;;;;;8.05;4.25;;;;;;;7.53;100.00;99735.63;5019953;28;20772;-61
2023/01/04 11:31:01;;;;;;;7.20;3.78;;;;;;;7.64;100.00;99749.53;4931905;28;20026;-62
2023/01/04 11:33:26;;;;;;;6.88;3.80;;;;;;;7.42;100.00;99703.50;5021649;28;20056;-62
2023/01/04 11:35:55;;;;;;;7.60;3.33;;;;;;;7.77;100.00;99736.63;5031823;28;20063;-61
2023/01/04 11:38:27;;;;;;;7.20;3.50;;;;;;;7.90;100.00;99747.03;5039769;28;20029;-60
2023/01/04 11:40:55;;;;;;;5.30;3.00;;;;;;;7.91;100.00;99742.69;5034647;28;20107;-61
2023/01/04 11:43:22;;;;;;;5.97;2.95;;;;;;;7.98;100.00;99742.19;5047835;28;20028;-58
2023/01/04 11:46:17;;;;;;;6.93;3.33;;;;;;;8.11;100.00;99738.81;5012061;28;21010;-60
2023/01/04 11:48:45;;;;;;;6.57;3.67;;;;;;;8.14;100.00;99730.81;5036233;28;20747;-59
2023/01/04 11:51:38;;;;;;;9.20;4.35;;;;;;;8.24;100.00;99724.91;5035948;28;20068;-59
2023/01/04 11:54:13;;;;;;;6.88;4.00;;;;;;;8.34;100.00;99719.13;5032598;28;20033;-60
2023/01/04 11:56:40;;;;;;;7.15;3.90;;;;;;;8.30;100.00;99715.91;5061045;28;20126;-61
2023/01/04 11:59:12;;;;;;;7.75;4.00;;;;;;;8.31;100.00;99712.38;5023307;28;20380;-60
2023/01/04 12:01:50;;;;;;;5.90;3.45;;;;;;;8.37;100.00;99704.19;5057577;28;20095;-61
2023/01/04 12:04:26;;;;;;;6.85;4.10;;;;;;;8.36;100.00;99696.50;5043871;28;20029;-61
2023/01/04 12:07:19;;;;;;;7.38;4.65;;;;;;;8.53;100.00;99701.44;5044923;28;20031;-60
2023/01/04 12:09:44;;;;;;;6.88;3.85;;;;;;;8.65;100.00;99700.59;5056339;28;20747;-59
2023/01/04 12:12:11;;;;;;;10.23;5.25;;;;;;;8.77;100.00;99693.72;5057217;28;20104;-59
2023/01/04 12:14:40;;;;;;;7.85;3.90;;;;;;;8.53;100.00;99648.75;5046269;28;20046;-60
2023/01/04 12:17:12;;;;;;;5.90;3.20;;;;;;;8.75;100.00;99677.44;5023163;28;20525;-62
2023/01/04 12:19:42;;;;;;;6.65;3.90;;;;;;;8.60;100.00;99686.28;5023987;28;21371;-59
2023/01/04 12:22:33;;;;;;;8.15;4.45;;;;;;;8.35;100.00;99687.09;5062247;28;20037;-59
2023/01/04 12:24:59;;;;;;;6.07;3.08;;;;;;;8.26;100.00;99683.34;5043564;28;20032;-61
2023/01/04 12:27:28;;;;;;;5.05;2.50;;;;;;;8.24;100.00;99691.22;5043265;28;20092;-58
2023/01/04 12:29:58;;;;;;;5.47;2.70;;;;;;;8.30;100.00;99682.22;5027121;28;20032;-60
2023/01/04 12:32:26;;;;;;;;;;;;;;;8.35;100.00;99671.56;5042040;28;20125;-64